sensor_id;sensor_type;location;lat;lon;timestamp;P1;durP1;ratioP1;P2;durP2;ratioP2
2570;SDS011;1295;51.130;6.732;2023-06-14T00:01:38;63.10;;;8.37;;
2570;SDS011;1295;51.130;6.732;2023-06-14T00:04:04;66.37;;;8.90;;
2570;SDS011;1295;51.130;6.732;2023-06-14T00:06:30;62.50;;;7.97;;
2570;SDS011;1295;51.130;6.732;2023-06-14T00:08:56;63.30;;;8.53;;
2570;SDS011;1295;51.130;6.732;2023-06-14T00:11:22;65.63;;;9.97;;
2570;SDS011;1295;51.130;6.732;2023-06-14T00:13:47;65.60;;;8.77;;
2570;SDS011;1295;51.130;6.732;2023-06-14T00:16:13;64.83;;;10.87;;
2570;SDS011;1295;51.130;6.732;2023-06-14T00:18:39;63.67;;;9.03;;
2570;SDS011;1295;51.130;6.732;2023-06-14T00:21:05;64.40;;;9.70;;
2570;SDS011;1295;51.130;6.732;2023-06-14T00:23:30;68.20;;;9.30;;
2570;SDS011;1295;51.130;6.732;2023-06-14T00:25:56;64.47;;;9.40;;
2570;SDS011;1295;51.130;6.732;2023-06-14T00:28:21;64.07;;;9.10;;
2570;SDS011;1295;51.130;6.732;2023-06-14T00:30:47;63.07;;;8.63;;
2570;SDS011;1295;51.130;6.732;2023-06-14T00:33:13;68.77;;;11.30;;
2570;SDS011;1295;51.130;6.732;2023-06-14T00:35:38;63.90;;;9.83;;
2570;SDS011;1295;51.130;6.732;2023-06-14T00:38:05;64.90;;;8.43;;
2570;SDS011;1295;51.130;6.732;2023-06-14T00:40:30;64.27;;;9.83;;
2570;SDS011;1295;51.130;6.732;2023-06-14T00:42:57;64.90;;;9.23;;
2570;SDS011;1295;51.130;6.732;2023-06-14T00:45:22;66.10;;;9.90;;
2570;SDS011;1295;51.130;6.732;2023-06-14T00:47:48;66.60;;;10.03;;
2570;SDS011;1295;51.130;6.732;2023-06-14T00:50:13;69.07;;;10.77;;
2570;SDS011;1295;51.130;6.732;2023-06-14T00:52:39;63.70;;;9.57;;
2570;SDS011;1295;51.130;6.732;2023-06-14T00:55:05;66.63;;;10.37;;
2570;SDS011;1295;51.130;6.732;2023-06-14T00:57:31;65.07;;;9.33;;
2570;SDS011;1295;51.130;6.732;2023-06-14T00:59:57;63.87;;;9.63;;
2570;SDS011;1295;51.130;6.732;2023-06-14T01:02:22;65.70;;;10.10;;
2570;SDS011;1295;51.130;6.732;2023-06-14T01:04:48;68.07;;;9.90;;
2570;SDS011;1295;51.130;6.732;2023-06-14T01:07:20;67.67;;;10.30;;
2570;SDS011;1295;51.130;6.732;2023-06-14T01:11:10;65.47;;;9.70;;
2570;SDS011;1295;51.130;6.732;2023-06-14T01:12:50;67.60;;;10.90;;
2570;SDS011;1295;51.130;6.732;2023-06-14T01:15:27;66.20;;;9.47;;
2570;SDS011;1295;51.130;6.732;2023-06-14T01:17:53;66.47;;;9.93;;
2570;SDS011;1295;51.130;6.732;2023-06-14T01:20:26;67.50;;;11.50;;
2570;SDS011;1295;51.130;6.732;2023-06-14T01:22:51;65.80;;;10.10;;
2570;SDS011;1295;51.130;6.732;2023-06-14T01:25:17;64.23;;;9.60;;
2570;SDS011;1295;51.130;6.732;2023-06-14T01:27:42;63.70;;;10.27;;
2570;SDS011;1295;51.130;6.732;2023-06-14T01:30:08;64.60;;;9.53;;
2570;SDS011;1295;51.130;6.732;2023-06-14T01:32:36;65.13;;;10.40;;
2570;SDS011;1295;51.130;6.732;2023-06-14T01:35:02;66.07;;;9.87;;
2570;SDS011;1295;51.130;6.732;2023-06-14T01:37:27;65.10;;;9.70;;
2570;SDS011;1295;51.130;6.732;2023-06-14T01:39:53;67.37;;;9.30;;
2570;SDS011;1295;51.130;6.732;2023-06-14T01:42:19;68.40;;;10.67;;
2570;SDS011;1295;51.130;6.732;2023-06-14T01:44:44;66.07;;;9.60;;
2570;SDS011;1295;51.130;6.732;2023-06-14T01:47:10;67.20;;;10.00;;
2570;SDS011;1295;51.130;6.732;2023-06-14T01:49:36;64.10;;;10.20;;
2570;SDS011;1295;51.130;6.732;2023-06-14T01:52:01;65.17;;;10.40;;
2570;SDS011;1295;51.130;6.732;2023-06-14T01:54:28;65.60;;;10.13;;
2570;SDS011;1295;51.130;6.732;2023-06-14T01:56:53;65.97;;;9.90;;
2570;SDS011;1295;51.130;6.732;2023-06-14T01:59:19;67.17;;;10.20;;
2570;SDS011;1295;51.130;6.732;2023-06-14T02:01:45;64.97;;;10.10;;
2570;SDS011;1295;51.130;6.732;2023-06-14T02:04:11;63.00;;;10.23;;
2570;SDS011;1295;51.130;6.732;2023-06-14T02:06:37;65.67;;;10.00;;
2570;SDS011;1295;51.130;6.732;2023-06-14T02:09:03;65.27;;;10.80;;
2570;SDS011;1295;51.130;6.732;2023-06-14T02:11:28;66.97;;;10.07;;
2570;SDS011;1295;51.130;6.732;2023-06-14T02:13:54;71.90;;;10.73;;
2570;SDS011;1295;51.130;6.732;2023-06-14T02:16:19;65.07;;;10.07;;
2570;SDS011;1295;51.130;6.732;2023-06-14T02:18:45;64.97;;;10.40;;
2570;SDS011;1295;51.130;6.732;2023-06-14T02:21:11;66.87;;;10.40;;
2570;SDS011;1295;51.130;6.732;2023-06-14T02:23:36;67.23;;;10.40;;
2570;SDS011;1295;51.130;6.732;2023-06-14T02:26:02;66.17;;;10.47;;
2570;SDS011;1295;51.130;6.732;2023-06-14T02:28:27;68.30;;;10.50;;
2570;SDS011;1295;51.130;6.732;2023-06-14T02:30:53;66.07;;;10.30;;
2570;SDS011;1295;51.130;6.732;2023-06-14T02:33:19;64.77;;;10.50;;
2570;SDS011;1295;51.130;6.732;2023-06-14T02:35:44;65.77;;;10.10;;
2570;SDS011;1295;51.130;6.732;2023-06-14T02:38:10;67.00;;;11.10;;
2570;SDS011;1295;51.130;6.732;2023-06-14T02:40:36;64.77;;;8.93;;
2570;SDS011;1295;51.130;6.732;2023-06-14T02:43:02;65.63;;;10.87;;
2570;SDS011;1295;51.130;6.732;2023-06-14T02:45:27;66.10;;;10.87;;
2570;SDS011;1295;51.130;6.732;2023-06-14T02:47:53;65.93;;;10.00;;
2570;SDS011;1295;51.130;6.732;2023-06-14T02:50:19;66.27;;;10.33;;
2570;SDS011;1295;51.130;6.732;2023-06-14T02:52:44;67.10;;;10.90;;
2570;SDS011;1295;51.130;6.732;2023-06-14T02:55:10;67.73;;;11.47;;
2570;SDS011;1295;51.130;6.732;2023-06-14T02:57:36;64.77;;;9.93;;
2570;SDS011;1295;51.130;6.732;2023-06-14T03:00:02;67.87;;;10.50;;
2570;SDS011;1295;51.130;6.732;2023-06-14T03:02:28;84.60;;;10.63;;
2570;SDS011;1295;51.130;6.732;2023-06-14T03:04:54;65.40;;;10.37;;
2570;SDS011;1295;51.130;6.732;2023-06-14T03:07:20;66.77;;;10.67;;
2570;SDS011;1295;51.130;6.732;2023-06-14T03:09:45;66.37;;;9.70;;
2570;SDS011;1295;51.130;6.732;2023-06-14T03:12:12;64.67;;;10.17;;
2570;SDS011;1295;51.130;6.732;2023-06-14T03:14:37;67.73;;;10.80;;
2570;SDS011;1295;51.130;6.732;2023-06-14T03:17:03;68.20;;;10.63;;
2570;SDS011;1295;51.130;6.732;2023-06-14T03:19:29;69.10;;;11.73;;
2570;SDS011;1295;51.130;6.732;2023-06-14T03:21:55;64.83;;;10.00;;
2570;SDS011;1295;51.130;6.732;2023-06-14T03:24:24;64.93;;;10.40;;
2570;SDS011;1295;51.130;6.732;2023-06-14T03:26:49;70.53;;;10.80;;
2570;SDS011;1295;51.130;6.732;2023-06-14T03:29:15;68.50;;;10.80;;
2570;SDS011;1295;51.130;6.732;2023-06-14T03:31:55;68.93;;;10.63;;
2570;SDS011;1295;51.130;6.732;2023-06-14T03:34:06;64.77;;;11.00;;
2570;SDS011;1295;51.130;6.732;2023-06-14T03:36:32;69.03;;;9.60;;
2570;SDS011;1295;51.130;6.732;2023-06-14T03:38:59;70.20;;;11.90;;
2570;SDS011;1295;51.130;6.732;2023-06-14T03:41:24;70.37;;;11.63;;
2570;SDS011;1295;51.130;6.732;2023-06-14T03:43:50;66.73;;;10.13;;
2570;SDS011;1295;51.130;6.732;2023-06-14T03:46:15;64.70;;;10.40;;
2570;SDS011;1295;51.130;6.732;2023-06-14T03:48:41;66.37;;;10.47;;
2570;SDS011;1295;51.130;6.732;2023-06-14T03:51:07;65.83;;;10.87;;
2570;SDS011;1295;51.130;6.732;2023-06-14T03:53:32;66.00;;;9.97;;
2570;SDS011;1295;51.130;6.732;2023-06-14T03:55:58;66.60;;;11.03;;
2570;SDS011;1295;51.130;6.732;2023-06-14T03:58:24;65.67;;;9.30;;
2570;SDS011;1295;51.130;6.732;2023-06-14T04:00:49;66.67;;;10.37;;
2570;SDS011;1295;51.130;6.732;2023-06-14T04:03:15;69.10;;;10.33;;
2570;SDS011;1295;51.130;6.732;2023-06-14T04:05:42;69.93;;;10.30;;
2570;SDS011;1295;51.130;6.732;2023-06-14T04:08:08;67.37;;;10.90;;
2570;SDS011;1295;51.130;6.732;2023-06-14T04:10:33;66.77;;;11.27;;
2570;SDS011;1295;51.130;6.732;2023-06-14T04:12:58;67.93;;;11.23;;
2570;SDS011;1295;51.130;6.732;2023-06-14T04:15:24;67.77;;;10.37;;
2570;SDS011;1295;51.130;6.732;2023-06-14T04:17:49;67.30;;;11.17;;
2570;SDS011;1295;51.130;6.732;2023-06-14T04:20:15;68.20;;;11.20;;
2570;SDS011;1295;51.130;6.732;2023-06-14T04:22:41;67.67;;;11.30;;
2570;SDS011;1295;51.130;6.732;2023-06-14T04:25:07;65.17;;;10.30;;
2570;SDS011;1295;51.130;6.732;2023-06-14T04:27:33;66.83;;;9.93;;
2570;SDS011;1295;51.130;6.732;2023-06-14T04:29:58;67.67;;;10.77;;
2570;SDS011;1295;51.130;6.732;2023-06-14T04:32:24;66.60;;;11.40;;
2570;SDS011;1295;51.130;6.732;2023-06-14T04:34:50;66.47;;;10.40;;
2570;SDS011;1295;51.130;6.732;2023-06-14T04:37:15;67.83;;;11.33;;
2570;SDS011;1295;51.130;6.732;2023-06-14T04:39:41;72.10;;;10.87;;
2570;SDS011;1295;51.130;6.732;2023-06-14T04:42:06;67.20;;;10.00;;
2570;SDS011;1295;51.130;6.732;2023-06-14T04:44:32;69.53;;;10.43;;
2570;SDS011;1295;51.130;6.732;2023-06-14T04:46:58;67.27;;;10.83;;
2570;SDS011;1295;51.130;6.732;2023-06-14T04:49:24;70.53;;;10.87;;
2570;SDS011;1295;51.130;6.732;2023-06-14T04:51:50;67.97;;;10.80;;
2570;SDS011;1295;51.130;6.732;2023-06-14T04:54:17;66.70;;;10.63;;
2570;SDS011;1295;51.130;6.732;2023-06-14T04:56:43;66.80;;;11.50;;
2570;SDS011;1295;51.130;6.732;2023-06-14T04:59:09;64.87;;;10.20;;
2570;SDS011;1295;51.130;6.732;2023-06-14T05:01:34;68.60;;;10.07;;
2570;SDS011;1295;51.130;6.732;2023-06-14T05:04:00;66.93;;;10.03;;
2570;SDS011;1295;51.130;6.732;2023-06-14T05:06:25;65.50;;;9.63;;
2570;SDS011;1295;51.130;6.732;2023-06-14T05:08:52;64.43;;;9.00;;
2570;SDS011;1295;51.130;6.732;2023-06-14T05:11:18;64.80;;;9.50;;
2570;SDS011;1295;51.130;6.732;2023-06-14T05:13:43;67.50;;;9.17;;
2570;SDS011;1295;51.130;6.732;2023-06-14T05:16:09;69.97;;;9.50;;
2570;SDS011;1295;51.130;6.732;2023-06-14T05:18:34;66.70;;;8.70;;
2570;SDS011;1295;51.130;6.732;2023-06-14T05:21:00;65.80;;;9.97;;
2570;SDS011;1295;51.130;6.732;2023-06-14T05:23:26;67.37;;;10.53;;
2570;SDS011;1295;51.130;6.732;2023-06-14T05:25:52;65.60;;;9.50;;
2570;SDS011;1295;51.130;6.732;2023-06-14T05:28:18;65.37;;;9.63;;
2570;SDS011;1295;51.130;6.732;2023-06-14T05:30:44;66.47;;;9.40;;
2570;SDS011;1295;51.130;6.732;2023-06-14T05:33:10;73.53;;;11.10;;
2570;SDS011;1295;51.130;6.732;2023-06-14T05:35:36;69.50;;;10.40;;
2570;SDS011;1295;51.130;6.732;2023-06-14T05:38:02;65.67;;;9.00;;
2570;SDS011;1295;51.130;6.732;2023-06-14T05:40:27;66.37;;;9.50;;
2570;SDS011;1295;51.130;6.732;2023-06-14T05:42:53;67.13;;;9.90;;
2570;SDS011;1295;51.130;6.732;2023-06-14T05:45:19;72.50;;;10.27;;
2570;SDS011;1295;51.130;6.732;2023-06-14T05:47:45;68.30;;;9.03;;
2570;SDS011;1295;51.130;6.732;2023-06-14T05:50:11;64.67;;;8.97;;
2570;SDS011;1295;51.130;6.732;2023-06-14T05:52:36;64.63;;;8.23;;
2570;SDS011;1295;51.130;6.732;2023-06-14T05:55:03;67.27;;;9.47;;
2570;SDS011;1295;51.130;6.732;2023-06-14T05:57:29;66.57;;;9.03;;
2570;SDS011;1295;51.130;6.732;2023-06-14T05:59:55;66.10;;;9.27;;
2570;SDS011;1295;51.130;6.732;2023-06-14T06:02:20;67.27;;;10.23;;
2570;SDS011;1295;51.130;6.732;2023-06-14T06:04:46;65.87;;;8.70;;
2570;SDS011;1295;51.130;6.732;2023-06-14T06:07:11;70.53;;;8.53;;
2570;SDS011;1295;51.130;6.732;2023-06-14T06:09:37;69.50;;;8.13;;
2570;SDS011;1295;51.130;6.732;2023-06-14T06:12:06;67.37;;;8.40;;
2570;SDS011;1295;51.130;6.732;2023-06-14T06:14:30;65.80;;;9.30;;
2570;SDS011;1295;51.130;6.732;2023-06-14T06:16:57;68.07;;;8.43;;
2570;SDS011;1295;51.130;6.732;2023-06-14T06:19:22;63.80;;;8.43;;
2570;SDS011;1295;51.130;6.732;2023-06-14T06:21:49;66.93;;;9.23;;
2570;SDS011;1295;51.130;6.732;2023-06-14T06:24:14;65.90;;;9.47;;
2570;SDS011;1295;51.130;6.732;2023-06-14T06:26:40;68.23;;;8.40;;
2570;SDS011;1295;51.130;6.732;2023-06-14T06:29:06;73.10;;;7.77;;
2570;SDS011;1295;51.130;6.732;2023-06-14T06:31:32;64.63;;;8.20;;
2570;SDS011;1295;51.130;6.732;2023-06-14T06:33:58;67.80;;;8.70;;
2570;SDS011;1295;51.130;6.732;2023-06-14T06:39:09;71.37;;;9.73;;
2570;SDS011;1295;51.130;6.732;2023-06-14T06:41:34;63.87;;;8.27;;
2570;SDS011;1295;51.130;6.732;2023-06-14T06:44:00;66.10;;;8.47;;
2570;SDS011;1295;51.130;6.732;2023-06-14T06:46:25;66.50;;;7.60;;
2570;SDS011;1295;51.130;6.732;2023-06-14T06:48:51;71.30;;;7.57;;
2570;SDS011;1295;51.130;6.732;2023-06-14T06:51:17;67.27;;;7.70;;
2570;SDS011;1295;51.130;6.732;2023-06-14T06:53:42;62.87;;;5.93;;
2570;SDS011;1295;51.130;6.732;2023-06-14T06:56:08;64.33;;;6.73;;
2570;SDS011;1295;51.130;6.732;2023-06-14T06:58:33;66.47;;;6.70;;
2570;SDS011;1295;51.130;6.732;2023-06-14T07:01:00;66.60;;;6.70;;
2570;SDS011;1295;51.130;6.732;2023-06-14T07:03:26;66.03;;;6.60;;
2570;SDS011;1295;51.130;6.732;2023-06-14T07:05:51;63.57;;;6.57;;
2570;SDS011;1295;51.130;6.732;2023-06-14T07:08:17;65.40;;;7.90;;
2570;SDS011;1295;51.130;6.732;2023-06-14T07:10:42;64.10;;;7.03;;
2570;SDS011;1295;51.130;6.732;2023-06-14T07:13:08;77.07;;;6.70;;
2570;SDS011;1295;51.130;6.732;2023-06-14T07:15:34;62.77;;;6.80;;
2570;SDS011;1295;51.130;6.732;2023-06-14T07:17:59;63.93;;;6.90;;
2570;SDS011;1295;51.130;6.732;2023-06-14T07:20:25;63.20;;;5.80;;
2570;SDS011;1295;51.130;6.732;2023-06-14T07:22:51;69.87;;;5.90;;
2570;SDS011;1295;51.130;6.732;2023-06-14T07:25:16;64.10;;;7.40;;
2570;SDS011;1295;51.130;6.732;2023-06-14T07:27:43;61.63;;;5.60;;
2570;SDS011;1295;51.130;6.732;2023-06-14T07:30:09;66.70;;;6.10;;
2570;SDS011;1295;51.130;6.732;2023-06-14T07:32:36;63.47;;;5.20;;
2570;SDS011;1295;51.130;6.732;2023-06-14T07:35:02;63.13;;;6.40;;
2570;SDS011;1295;51.130;6.732;2023-06-14T07:37:27;61.10;;;5.80;;
2570;SDS011;1295;51.130;6.732;2023-06-14T07:39:53;66.67;;;7.10;;
2570;SDS011;1295;51.130;6.732;2023-06-14T07:42:19;62.03;;;5.53;;
2570;SDS011;1295;51.130;6.732;2023-06-14T07:44:45;61.90;;;5.73;;
2570;SDS011;1295;51.130;6.732;2023-06-14T07:47:10;62.30;;;5.83;;
2570;SDS011;1295;51.130;6.732;2023-06-14T07:49:36;61.53;;;5.67;;
2570;SDS011;1295;51.130;6.732;2023-06-14T07:52:02;61.20;;;4.90;;
2570;SDS011;1295;51.130;6.732;2023-06-14T07:54:28;61.73;;;4.33;;
2570;SDS011;1295;51.130;6.732;2023-06-14T07:56:54;63.00;;;5.73;;
2570;SDS011;1295;51.130;6.732;2023-06-14T07:59:20;60.57;;;4.90;;
2570;SDS011;1295;51.130;6.732;2023-06-14T08:01:45;64.37;;;6.03;;
2570;SDS011;1295;51.130;6.732;2023-06-14T08:04:11;61.20;;;4.47;;
2570;SDS011;1295;51.130;6.732;2023-06-14T08:06:37;63.07;;;4.80;;
2570;SDS011;1295;51.130;6.732;2023-06-14T08:09:02;60.47;;;5.10;;
2570;SDS011;1295;51.130;6.732;2023-06-14T08:11:28;61.57;;;3.83;;
2570;SDS011;1295;51.130;6.732;2023-06-14T08:13:54;60.07;;;5.80;;
2570;SDS011;1295;51.130;6.732;2023-06-14T08:16:36;63.90;;;5.30;;
2570;SDS011;1295;51.130;6.732;2023-06-14T08:19:02;61.37;;;3.93;;
2570;SDS011;1295;51.130;6.732;2023-06-14T08:21:27;59.57;;;3.67;;
2570;SDS011;1295;51.130;6.732;2023-06-14T08:23:53;61.27;;;4.37;;
2570;SDS011;1295;51.130;6.732;2023-06-14T08:26:19;60.27;;;5.90;;
2570;SDS011;1295;51.130;6.732;2023-06-14T08:28:44;63.63;;;5.70;;
2570;SDS011;1295;51.130;6.732;2023-06-14T08:31:11;61.70;;;4.93;;
2570;SDS011;1295;51.130;6.732;2023-06-14T08:33:37;60.53;;;5.10;;
2570;SDS011;1295;51.130;6.732;2023-06-14T08:36:03;60.30;;;4.43;;
2570;SDS011;1295;51.130;6.732;2023-06-14T08:38:29;60.40;;;4.70;;
2570;SDS011;1295;51.130;6.732;2023-06-14T08:40:56;59.87;;;4.47;;
2570;SDS011;1295;51.130;6.732;2023-06-14T08:43:20;65.30;;;5.10;;
2570;SDS011;1295;51.130;6.732;2023-06-14T08:45:46;61.27;;;5.67;;
2570;SDS011;1295;51.130;6.732;2023-06-14T08:48:11;61.20;;;5.37;;
2570;SDS011;1295;51.130;6.732;2023-06-14T08:50:37;63.67;;;11.50;;
2570;SDS011;1295;51.130;6.732;2023-06-14T08:53:04;60.17;;;4.90;;
2570;SDS011;1295;51.130;6.732;2023-06-14T08:55:29;61.27;;;4.20;;
2570;SDS011;1295;51.130;6.732;2023-06-14T08:57:55;62.80;;;5.80;;
2570;SDS011;1295;51.130;6.732;2023-06-14T09:00:20;60.40;;;4.93;;
2570;SDS011;1295;51.130;6.732;2023-06-14T09:02:47;61.40;;;5.30;;
2570;SDS011;1295;51.130;6.732;2023-06-14T09:05:12;63.20;;;7.67;;
2570;SDS011;1295;51.130;6.732;2023-06-14T09:07:40;59.77;;;4.60;;
2570;SDS011;1295;51.130;6.732;2023-06-14T09:10:08;63.00;;;5.60;;
2570;SDS011;1295;51.130;6.732;2023-06-14T09:12:33;62.57;;;4.53;;
2570;SDS011;1295;51.130;6.732;2023-06-14T09:14:59;61.83;;;4.47;;
2570;SDS011;1295;51.130;6.732;2023-06-14T09:17:24;63.30;;;5.50;;
2570;SDS011;1295;51.130;6.732;2023-06-14T09:19:51;61.10;;;5.87;;
2570;SDS011;1295;51.130;6.732;2023-06-14T09:22:16;64.33;;;4.23;;
2570;SDS011;1295;51.130;6.732;2023-06-14T09:24:42;62.07;;;5.80;;
2570;SDS011;1295;51.130;6.732;2023-06-14T09:27:07;61.90;;;5.67;;
2570;SDS011;1295;51.130;6.732;2023-06-14T09:29:34;60.60;;;4.10;;
2570;SDS011;1295;51.130;6.732;2023-06-14T09:31:59;60.93;;;5.17;;
2570;SDS011;1295;51.130;6.732;2023-06-14T09:34:26;60.90;;;5.80;;
2570;SDS011;1295;51.130;6.732;2023-06-14T09:36:51;61.53;;;4.03;;
2570;SDS011;1295;51.130;6.732;2023-06-14T09:39:17;59.23;;;4.53;;
2570;SDS011;1295;51.130;6.732;2023-06-14T09:41:43;60.30;;;4.33;;
2570;SDS011;1295;51.130;6.732;2023-06-14T09:44:08;64.87;;;4.20;;
2570;SDS011;1295;51.130;6.732;2023-06-14T09:46:34;62.30;;;7.63;;
2570;SDS011;1295;51.130;6.732;2023-06-14T09:49:00;59.03;;;4.30;;
2570;SDS011;1295;51.130;6.732;2023-06-14T09:51:25;60.77;;;3.97;;
2570;SDS011;1295;51.130;6.732;2023-06-14T09:53:51;61.20;;;4.40;;
2570;SDS011;1295;51.130;6.732;2023-06-14T09:56:18;63.87;;;8.33;;
2570;SDS011;1295;51.130;6.732;2023-06-14T09:58:43;59.60;;;4.40;;
2570;SDS011;1295;51.130;6.732;2023-06-14T10:01:08;72.23;;;15.77;;
2570;SDS011;1295;51.130;6.732;2023-06-14T10:03:35;61.57;;;5.10;;
2570;SDS011;1295;51.130;6.732;2023-06-14T10:06:02;61.83;;;4.40;;
2570;SDS011;1295;51.130;6.732;2023-06-14T10:08:27;62.20;;;5.00;;
2570;SDS011;1295;51.130;6.732;2023-06-14T10:10:53;62.77;;;5.20;;
2570;SDS011;1295;51.130;6.732;2023-06-14T10:13:18;59.37;;;4.03;;
2570;SDS011;1295;51.130;6.732;2023-06-14T10:15:48;61.33;;;3.67;;
2570;SDS011;1295;51.130;6.732;2023-06-14T10:18:19;64.17;;;4.93;;
2570;SDS011;1295;51.130;6.732;2023-06-14T10:21:04;61.87;;;7.93;;
2570;SDS011;1295;51.130;6.732;2023-06-14T10:23:29;61.27;;;4.83;;
2570;SDS011;1295;51.130;6.732;2023-06-14T10:25:56;59.80;;;4.27;;
2570;SDS011;1295;51.130;6.732;2023-06-14T10:28:21;59.30;;;4.47;;
2570;SDS011;1295;51.130;6.732;2023-06-14T10:33:25;59.47;;;4.23;;
2570;SDS011;1295;51.130;6.732;2023-06-14T10:35:54;60.37;;;5.10;;
2570;SDS011;1295;51.130;6.732;2023-06-14T10:38:17;60.97;;;4.63;;
2570;SDS011;1295;51.130;6.732;2023-06-14T10:40:43;69.07;;;5.27;;
2570;SDS011;1295;51.130;6.732;2023-06-14T10:43:20;59.00;;;4.17;;
2570;SDS011;1295;51.130;6.732;2023-06-14T10:48:31;63.13;;;4.40;;
2570;SDS011;1295;51.130;6.732;2023-06-14T10:51:00;61.93;;;4.00;;
2570;SDS011;1295;51.130;6.732;2023-06-14T10:53:26;60.33;;;4.50;;
2570;SDS011;1295;51.130;6.732;2023-06-14T10:55:51;61.47;;;4.27;;
2570;SDS011;1295;51.130;6.732;2023-06-14T10:58:17;59.83;;;5.00;;
2570;SDS011;1295;51.130;6.732;2023-06-14T11:00:43;60.90;;;5.70;;
2570;SDS011;1295;51.130;6.732;2023-06-14T11:03:20;59.87;;;4.50;;
2570;SDS011;1295;51.130;6.732;2023-06-14T11:06:13;62.00;;;4.60;;
2570;SDS011;1295;51.130;6.732;2023-06-14T11:08:39;59.80;;;4.23;;
2570;SDS011;1295;51.130;6.732;2023-06-14T11:11:06;61.27;;;4.20;;
2570;SDS011;1295;51.130;6.732;2023-06-14T11:13:31;60.60;;;4.90;;
2570;SDS011;1295;51.130;6.732;2023-06-14T11:15:57;60.00;;;4.30;;
2570;SDS011;1295;51.130;6.732;2023-06-14T11:18:22;60.20;;;4.77;;
2570;SDS011;1295;51.130;6.732;2023-06-14T11:20:48;59.90;;;4.90;;
2570;SDS011;1295;51.130;6.732;2023-06-14T11:23:14;61.37;;;4.90;;
2570;SDS011;1295;51.130;6.732;2023-06-14T11:25:39;62.63;;;4.53;;
2570;SDS011;1295;51.130;6.732;2023-06-14T11:28:05;62.47;;;5.77;;
2570;SDS011;1295;51.130;6.732;2023-06-14T11:30:31;61.40;;;5.30;;
2570;SDS011;1295;51.130;6.732;2023-06-14T11:32:56;61.53;;;4.40;;
2570;SDS011;1295;51.130;6.732;2023-06-14T11:35:22;69.37;;;4.63;;
2570;SDS011;1295;51.130;6.732;2023-06-14T11:37:49;60.90;;;4.47;;
2570;SDS011;1295;51.130;6.732;2023-06-14T11:40:14;60.13;;;4.13;;
2570;SDS011;1295;51.130;6.732;2023-06-14T11:42:40;63.57;;;5.07;;
2570;SDS011;1295;51.130;6.732;2023-06-14T11:45:08;61.63;;;5.03;;
2570;SDS011;1295;51.130;6.732;2023-06-14T11:47:34;61.43;;;4.07;;
2570;SDS011;1295;51.130;6.732;2023-06-14T11:49:59;66.33;;;4.90;;
2570;SDS011;1295;51.130;6.732;2023-06-14T11:52:25;60.57;;;4.80;;
2570;SDS011;1295;51.130;6.732;2023-06-14T11:54:50;59.40;;;4.43;;
2570;SDS011;1295;51.130;6.732;2023-06-14T11:57:17;61.00;;;4.67;;
2570;SDS011;1295;51.130;6.732;2023-06-14T11:59:41;61.60;;;5.23;;
2570;SDS011;1295;51.130;6.732;2023-06-14T12:02:07;59.57;;;3.83;;
2570;SDS011;1295;51.130;6.732;2023-06-14T12:04:33;62.07;;;4.87;;
2570;SDS011;1295;51.130;6.732;2023-06-14T12:09:33;62.37;;;8.33;;
2570;SDS011;1295;51.130;6.732;2023-06-14T12:12:00;62.17;;;5.50;;
2570;SDS011;1295;51.130;6.732;2023-06-14T12:14:28;63.77;;;4.93;;
2570;SDS011;1295;51.130;6.732;2023-06-14T12:17:03;60.80;;;5.07;;
2570;SDS011;1295;51.130;6.732;2023-06-14T12:19:19;61.37;;;4.10;;
2570;SDS011;1295;51.130;6.732;2023-06-14T12:21:46;60.00;;;4.80;;
2570;SDS011;1295;51.130;6.732;2023-06-14T12:24:11;59.00;;;4.27;;
2570;SDS011;1295;51.130;6.732;2023-06-14T12:26:38;62.20;;;8.33;;
2570;SDS011;1295;51.130;6.732;2023-06-14T12:29:04;60.37;;;4.00;;
2570;SDS011;1295;51.130;6.732;2023-06-14T12:31:29;60.03;;;3.80;;
2570;SDS011;1295;51.130;6.732;2023-06-14T12:33:55;63.70;;;5.40;;
2570;SDS011;1295;51.130;6.732;2023-06-14T12:36:20;60.23;;;3.90;;
2570;SDS011;1295;51.130;6.732;2023-06-14T12:38:46;59.70;;;4.17;;
2570;SDS011;1295;51.130;6.732;2023-06-14T12:41:11;59.67;;;4.90;;
2570;SDS011;1295;51.130;6.732;2023-06-14T12:43:37;59.40;;;4.70;;
2570;SDS011;1295;51.130;6.732;2023-06-14T12:46:03;59.00;;;4.70;;
2570;SDS011;1295;51.130;6.732;2023-06-14T12:48:28;58.90;;;4.17;;
2570;SDS011;1295;51.130;6.732;2023-06-14T12:50:54;62.17;;;5.23;;
2570;SDS011;1295;51.130;6.732;2023-06-14T12:53:20;59.87;;;5.10;;
2570;SDS011;1295;51.130;6.732;2023-06-14T12:55:46;63.90;;;4.20;;
2570;SDS011;1295;51.130;6.732;2023-06-14T12:58:12;60.90;;;4.23;;
2570;SDS011;1295;51.130;6.732;2023-06-14T13:00:38;59.30;;;3.90;;
2570;SDS011;1295;51.130;6.732;2023-06-14T13:03:04;58.70;;;3.37;;
2570;SDS011;1295;51.130;6.732;2023-06-14T13:05:29;59.97;;;4.30;;
2570;SDS011;1295;51.130;6.732;2023-06-14T13:07:55;61.00;;;4.63;;
2570;SDS011;1295;51.130;6.732;2023-06-14T13:10:21;64.37;;;4.20;;
2570;SDS011;1295;51.130;6.732;2023-06-14T13:12:47;60.00;;;4.60;;
2570;SDS011;1295;51.130;6.732;2023-06-14T13:15:13;58.70;;;2.83;;
2570;SDS011;1295;51.130;6.732;2023-06-14T13:17:38;58.03;;;3.20;;
2570;SDS011;1295;51.130;6.732;2023-06-14T13:20:05;58.97;;;3.60;;
2570;SDS011;1295;51.130;6.732;2023-06-14T13:22:30;59.37;;;4.33;;
2570;SDS011;1295;51.130;6.732;2023-06-14T13:24:56;59.60;;;3.97;;
2570;SDS011;1295;51.130;6.732;2023-06-14T13:27:22;58.20;;;3.33;;
2570;SDS011;1295;51.130;6.732;2023-06-14T13:29:48;59.93;;;4.13;;
2570;SDS011;1295;51.130;6.732;2023-06-14T13:32:14;66.00;;;4.33;;
2570;SDS011;1295;51.130;6.732;2023-06-14T13:34:40;60.80;;;3.67;;
2570;SDS011;1295;51.130;6.732;2023-06-14T13:37:06;61.73;;;4.60;;
2570;SDS011;1295;51.130;6.732;2023-06-14T13:39:31;58.10;;;4.33;;
2570;SDS011;1295;51.130;6.732;2023-06-14T13:41:57;64.00;;;3.87;;
2570;SDS011;1295;51.130;6.732;2023-06-14T13:44:22;60.50;;;4.57;;
2570;SDS011;1295;51.130;6.732;2023-06-14T13:46:48;60.67;;;3.53;;
2570;SDS011;1295;51.130;6.732;2023-06-14T13:49:14;60.50;;;5.97;;
2570;SDS011;1295;51.130;6.732;2023-06-14T13:51:39;58.60;;;4.00;;
2570;SDS011;1295;51.130;6.732;2023-06-14T13:54:05;59.40;;;4.30;;
2570;SDS011;1295;51.130;6.732;2023-06-14T13:56:31;61.80;;;3.97;;
2570;SDS011;1295;51.130;6.732;2023-06-14T13:58:56;60.27;;;4.40;;
2570;SDS011;1295;51.130;6.732;2023-06-14T14:01:22;60.00;;;5.43;;
2570;SDS011;1295;51.130;6.732;2023-06-14T14:03:48;65.33;;;4.40;;
2570;SDS011;1295;51.130;6.732;2023-06-14T14:06:13;65.50;;;4.47;;
2570;SDS011;1295;51.130;6.732;2023-06-14T14:08:40;59.27;;;3.40;;
2570;SDS011;1295;51.130;6.732;2023-06-14T14:11:05;60.67;;;4.90;;
2570;SDS011;1295;51.130;6.732;2023-06-14T14:13:31;58.40;;;3.97;;
2570;SDS011;1295;51.130;6.732;2023-06-14T14:15:57;60.30;;;4.73;;
2570;SDS011;1295;51.130;6.732;2023-06-14T14:18:23;60.17;;;4.60;;
2570;SDS011;1295;51.130;6.732;2023-06-14T14:20:49;59.10;;;4.67;;
2570;SDS011;1295;51.130;6.732;2023-06-14T14:23:15;59.60;;;4.30;;
2570;SDS011;1295;51.130;6.732;2023-06-14T14:25:40;60.83;;;4.43;;
2570;SDS011;1295;51.130;6.732;2023-06-14T14:28:06;60.77;;;4.40;;
2570;SDS011;1295;51.130;6.732;2023-06-14T14:30:32;62.07;;;4.07;;
2570;SDS011;1295;51.130;6.732;2023-06-14T14:32:57;58.60;;;4.70;;
2570;SDS011;1295;51.130;6.732;2023-06-14T14:35:23;61.60;;;5.30;;
2570;SDS011;1295;51.130;6.732;2023-06-14T14:37:48;59.50;;;3.90;;
2570;SDS011;1295;51.130;6.732;2023-06-14T14:40:14;57.63;;;3.70;;
2570;SDS011;1295;51.130;6.732;2023-06-14T14:42:40;60.50;;;4.53;;
2570;SDS011;1295;51.130;6.732;2023-06-14T14:45:06;60.77;;;6.50;;
2570;SDS011;1295;51.130;6.732;2023-06-14T14:47:33;60.33;;;4.07;;
2570;SDS011;1295;51.130;6.732;2023-06-14T14:49:59;62.77;;;4.80;;
2570;SDS011;1295;51.130;6.732;2023-06-14T14:52:25;58.53;;;4.10;;
2570;SDS011;1295;51.130;6.732;2023-06-14T14:55:06;60.40;;;3.93;;
2570;SDS011;1295;51.130;6.732;2023-06-14T14:57:32;59.60;;;4.00;;
2570;SDS011;1295;51.130;6.732;2023-06-14T14:59:58;63.30;;;4.47;;
2570;SDS011;1295;51.130;6.732;2023-06-14T15:02:23;58.97;;;3.87;;